Time;durP1;ratioP1;P1;durP2;ratioP2;P2;SDS_P1;SDS_P2;PMS_P1;PMS_P2;Temp;Humidity;BMP_temperature;BMP_pressure;BME280_temperature;BME280_humidity;BME280_pressure;Samples;Min_cycle;Max_cycle;Signal;HPM_P1;HPM_P2
2021/10/16 00:02:07;;;;;;;0.10;0.10;;;;;;;;;;5133781;27;20039;-90
2021/10/16 00:04:33;;;;;;;0.10;0.10;;;;;;;;;;5099973;27;20071;-90
2021/10/16 00:06:59;;;;;;;0.10;0.10;;;;;;;;;;5116936;27;20118;-90
2021/10/16 00:09:25;;;;;;;0.10;0.10;;;;;;;;;;5116655;27;20097;-90
2021/10/16 00:11:51;;;;;;;0.10;0.10;;;;;;;;;;5116580;27;20043;-90
2021/10/16 00:14:17;;;;;;;0.10;0.10;;;;;;;;;;5133500;27;20066;-91
2021/10/16 00:16:43;;;;;;;0.10;0.10;;;;;;;;;;5116755;27;20035;-89
2021/10/16 00:19:09;;;;;;;0.10;0.10;;;;;;;;;;5116715;27;20074;-91
2021/10/16 00:21:36;;;;;;;0.10;0.10;;;;;;;;;;5116453;27;20039;-90
2021/10/16 00:24:02;;;;;;;0.10;0.10;;;;;;;;;;5099514;27;20129;-90
2021/10/16 00:26:28;;;;;;;0.10;0.10;;;;;;;;;;5098993;27;20043;-91
2021/10/16 00:28:54;;;;;;;0.10;0.10;;;;;;;;;;5133602;27;20035;-90
2021/10/16 00:31:20;;;;;;;0.10;0.10;;;;;;;;;;5116178;27;20482;-91
2021/10/16 00:33:46;;;;;;;0.10;0.10;;;;;;;;;;5099117;27;20389;-91
2021/10/16 00:36:12;;;;;;;0.10;0.10;;;;;;;;;;5116468;27;20039;-90
2021/10/16 00:38:38;;;;;;;0.10;0.10;;;;;;;;;;5099165;27;20187;-91
2021/10/16 00:41:04;;;;;;;0.10;0.10;;;;;;;;;;5133098;27;20402;-92
2021/10/16 00:43:30;;;;;;;0.10;0.10;;;;;;;;;;5115918;27;20035;-91
2021/10/16 00:45:56;;;;;;;0.10;0.10;;;;;;;;;;5132757;27;20050;-91
2021/10/16 00:48:22;;;;;;;0.10;0.10;;;;;;;;;;5116040;27;20031;-91
2021/10/16 00:50:48;;;;;;;0.10;0.10;;;;;;;;;;5132676;27;20043;-90
2021/10/16 00:53:14;;;;;;;0.10;0.10;;;;;;;;;;5115777;27;20137;-90
2021/10/16 00:55:40;;;;;;;0.10;0.10;;;;;;;;;;5098470;27;20053;-90
2021/10/16 00:58:06;;;;;;;0.10;0.10;;;;;;;;;;5115505;27;20064;-89
2021/10/16 01:00:32;;;;;;;0.10;0.10;;;;;;;;;;5115576;27;20101;-91
2021/10/16 01:03:02;;;;;;;0.10;0.10;;;;;;;;;;5099183;27;20047;-91
2021/10/16 01:05:28;;;;;;;0.10;0.10;;;;;;;;;;5132710;27;20641;-90
2021/10/16 01:07:54;;;;;;;0.10;0.10;;;;;;;;;;5098611;27;20071;-90
2021/10/16 01:10:20;;;;;;;0.10;0.10;;;;;;;;;;5098478;27;20144;-91
2021/10/16 01:12:47;;;;;;;0.10;0.10;;;;;;;;;;5098370;27;20463;-90
2021/10/16 01:15:13;;;;;;;0.10;0.10;;;;;;;;;;5115251;27;20078;-90
2021/10/16 01:17:41;;;;;;;0.10;0.10;;;;;;;;;;5132435;27;20072;-91
2021/10/16 01:20:08;;;;;;;0.10;0.10;;;;;;;;;;5115470;28;20039;-90
2021/10/16 01:22:34;;;;;;;0.10;0.10;;;;;;;;;;5115235;27;20031;-91
2021/10/16 01:25:00;;;;;;;0.10;0.10;;;;;;;;;;5098291;27;20146;-90
2021/10/16 01:27:26;;;;;;;0.10;0.10;;;;;;;;;;5115119;28;20031;-90
2021/10/16 01:29:52;;;;;;;0.10;0.10;;;;;;;;;;5115304;28;20046;-92
2021/10/16 01:32:18;;;;;;;0.10;0.10;;;;;;;;;;5115702;28;20043;-91
2021/10/16 01:34:44;;;;;;;0.10;0.10;;;;;;;;;;5098523;28;20038;-90
2021/10/16 01:37:10;;;;;;;0.10;0.10;;;;;;;;;;5114856;28;20051;-89
2021/10/16 01:39:36;;;;;;;0.10;0.10;;;;;;;;;;5114792;28;20040;-89
2021/10/16 01:42:02;;;;;;;0.10;0.10;;;;;;;;;;5131711;28;20256;-89
2021/10/16 01:44:28;;;;;;;0.10;0.10;;;;;;;;;;5116874;27;20039;-89
2021/10/16 01:46:54;;;;;;;0.10;0.10;;;;;;;;;;5118900;27;20084;-89
2021/10/16 01:49:20;;;;;;;0.10;0.10;;;;;;;;;;5135973;27;20066;-89
2021/10/16 01:51:47;;;;;;;0.10;0.10;;;;;;;;;;5118990;27;20482;-89
2021/10/16 01:54:13;;;;;;;0.10;0.10;;;;;;;;;;5119197;27;20062;-89
2021/10/16 01:56:39;;;;;;;0.10;0.10;;;;;;;;;;5118662;27;20051;-90
2021/10/16 01:59:11;;;;;;;0.13;0.13;;;;;;;;;;5118737;27;20122;-89
2021/10/16 02:01:37;;;;;;;0.10;0.10;;;;;;;;;;5118919;27;20035;-89
2021/10/16 02:04:03;;;;;;;0.10;0.10;;;;;;;;;;5118769;27;20046;-90
2021/10/16 02:06:29;;;;;;;0.10;0.10;;;;;;;;;;5118397;27;20039;-90
2021/10/16 02:08:55;;;;;;;0.10;0.10;;;;;;;;;;5118700;27;20045;-90
2021/10/16 02:11:21;;;;;;;0.10;0.10;;;;;;;;;;5101384;27;20555;-90
2021/10/16 02:13:47;;;;;;;0.10;0.10;;;;;;;;;;5101474;27;20038;-89
2021/10/16 02:16:13;;;;;;;0.10;0.10;;;;;;;;;;5118641;27;20039;-90
2021/10/16 02:18:39;;;;;;;0.10;0.10;;;;;;;;;;5118824;27;20119;-89
2021/10/16 02:21:05;;;;;;;0.10;0.10;;;;;;;;;;5101119;27;20043;-90
2021/10/16 02:23:31;;;;;;;0.10;0.10;;;;;;;;;;5118182;27;20035;-90
2021/10/16 02:25:57;;;;;;;0.10;0.10;;;;;;;;;;5118209;27;20054;-90
2021/10/16 02:28:23;;;;;;;0.10;0.10;;;;;;;;;;5118118;27;20031;-89
2021/10/16 02:30:49;;;;;;;0.10;0.10;;;;;;;;;;5118413;27;20046;-90
2021/10/16 02:33:15;;;;;;;0.10;0.10;;;;;;;;;;5118264;27;20068;-91
2021/10/16 02:35:41;;;;;;;0.10;0.10;;;;;;;;;;5118041;27;20134;-91
2021/10/16 02:38:08;;;;;;;0.10;0.10;;;;;;;;;;5118288;27;20058;-90
2021/10/16 02:40:33;;;;;;;0.10;0.10;;;;;;;;;;5134946;27;20043;-90
2021/10/16 02:43:01;;;;;;;0.10;0.10;;;;;;;;;;5100589;27;20042;-90
2021/10/16 02:45:27;;;;;;;0.13;0.13;;;;;;;;;;5118514;27;20092;-90
2021/10/16 02:47:53;;;;;;;0.10;0.10;;;;;;;;;;5117718;27;20039;-90
2021/10/16 02:50:19;;;;;;;0.10;0.10;;;;;;;;;;5101135;27;20035;-90
2021/10/16 02:52:45;;;;;;;0.10;0.10;;;;;;;;;;5100705;27;20043;-90
2021/10/16 02:55:11;;;;;;;0.10;0.10;;;;;;;;;;5099357;28;20497;-90
2021/10/16 02:57:37;;;;;;;0.10;0.10;;;;;;;;;;5117158;27;20065;-90
2021/10/16 03:00:04;;;;;;;0.10;0.10;;;;;;;;;;5134549;27;20046;-90
2021/10/16 03:02:30;;;;;;;0.10;0.10;;;;;;;;;;5117528;27;20122;-91
2021/10/16 03:04:56;;;;;;;0.10;0.10;;;;;;;;;;5117581;27;20085;-90
2021/10/16 03:07:22;;;;;;;0.10;0.10;;;;;;;;;;5100411;27;20109;-90
2021/10/16 03:09:48;;;;;;;0.10;0.10;;;;;;;;;;5117877;27;20059;-90
2021/10/16 03:12:14;;;;;;;0.10;0.10;;;;;;;;;;5100387;27;20402;-90
2021/10/16 03:14:40;;;;;;;0.10;0.10;;;;;;;;;;5134472;27;20489;-90
2021/10/16 03:17:06;;;;;;;0.10;0.10;;;;;;;;;;5117292;27;20054;-90
2021/10/16 03:19:32;;;;;;;0.10;0.10;;;;;;;;;;5117204;27;20129;-91
2021/10/16 03:21:58;;;;;;;0.10;0.10;;;;;;;;;;5117293;27;20513;-90
2021/10/16 03:24:24;;;;;;;0.10;0.10;;;;;;;;;;5117340;27;20039;-90
2021/10/16 03:26:51;;;;;;;0.10;0.10;;;;;;;;;;5100273;27;20088;-90
2021/10/16 03:29:16;;;;;;;0.10;0.10;;;;;;;;;;5134373;27;20088;-91
2021/10/16 03:31:42;;;;;;;0.10;0.10;;;;;;;;;;5117213;27;20035;-89
2021/10/16 03:34:08;;;;;;;0.10;0.10;;;;;;;;;;5117423;27;20067;-90
2021/10/16 03:36:34;;;;;;;0.10;0.10;;;;;;;;;;5117153;27;20092;-90
2021/10/16 03:39:00;;;;;;;0.10;0.10;;;;;;;;;;5100355;27;20039;-91
2021/10/16 03:41:26;;;;;;;0.10;0.10;;;;;;;;;;5100404;27;20062;-91
2021/10/16 03:43:52;;;;;;;0.10;0.10;;;;;;;;;;5116802;27;20035;-91
2021/10/16 03:46:18;;;;;;;0.10;0.10;;;;;;;;;;5116939;27;20051;-91
2021/10/16 03:48:44;;;;;;;0.10;0.10;;;;;;;;;;5100163;27;20086;-91
2021/10/16 03:51:10;;;;;;;0.10;0.10;;;;;;;;;;5133981;27;20450;-90
2021/10/16 03:53:36;;;;;;;0.10;0.10;;;;;;;;;;5116879;27;20508;-89
2021/10/16 03:56:02;;;;;;;0.10;0.10;;;;;;;;;;5099224;27;20039;-88
2021/10/16 03:58:28;;;;;;;0.10;0.10;;;;;;;;;;5116043;27;20115;-89
2021/10/16 04:01:00;;;;;;;0.10;0.10;;;;;;;;;;5115899;27;20072;-89
2021/10/16 04:03:26;;;;;;;0.10;0.10;;;;;;;;;;5100140;27;20122;-89
2021/10/16 04:05:52;;;;;;;0.10;0.10;;;;;;;;;;5116149;27;20078;-89
2021/10/16 04:08:17;;;;;;;0.10;0.10;;;;;;;;;;5116114;27;20050;-89
2021/10/16 04:10:45;;;;;;;0.10;0.10;;;;;;;;;;5099274;27;20035;-89
2021/10/16 04:13:11;;;;;;;0.17;0.17;;;;;;;;;;5099376;27;20050;-90
2021/10/16 04:15:37;;;;;;;0.10;0.10;;;;;;;;;;5099129;27;20039;-90
2021/10/16 04:18:03;;;;;;;0.10;0.10;;;;;;;;;;5116617;27;20070;-90
2021/10/16 04:20:29;;;;;;;0.10;0.10;;;;;;;;;;5133697;27;20046;-90
2021/10/16 04:22:55;;;;;;;0.10;0.10;;;;;;;;;;5099585;27;20035;-90
2021/10/16 04:25:21;;;;;;;0.10;0.10;;;;;;;;;;5116398;27;20031;-90
2021/10/16 04:27:47;;;;;;;0.10;0.10;;;;;;;;;;5116112;27;20050;-89
2021/10/16 04:30:13;;;;;;;0.10;0.10;;;;;;;;;;5116007;27;20043;-89
2021/10/16 04:32:39;;;;;;;0.10;0.10;;;;;;;;;;5115878;27;20049;-89
2021/10/16 04:35:06;;;;;;;0.10;0.10;;;;;;;;;;5116105;27;20070;-90
2021/10/16 04:37:32;;;;;;;0.10;0.10;;;;;;;;;;5099457;27;20035;-90
2021/10/16 04:39:58;;;;;;;0.10;0.10;;;;;;;;;;5116177;27;20394;-89
2021/10/16 04:42:24;;;;;;;0.10;0.10;;;;;;;;;;5115806;27;20043;-90
2021/10/16 04:44:50;;;;;;;0.10;0.10;;;;;;;;;;5098983;27;20031;-90
2021/10/16 04:47:16;;;;;;;0.10;0.10;;;;;;;;;;5116012;27;20478;-89
2021/10/16 04:49:42;;;;;;;0.10;0.10;;;;;;;;;;5099397;27;20046;-90
2021/10/16 04:52:08;;;;;;;0.10;0.10;;;;;;;;;;5115997;27;20425;-90
2021/10/16 04:54:34;;;;;;;0.10;0.10;;;;;;;;;;5115583;27;20038;-90
2021/10/16 04:57:00;;;;;;;0.10;0.10;;;;;;;;;;5115395;27;20051;-89
2021/10/16 04:59:26;;;;;;;0.10;0.10;;;;;;;;;;5115132;27;20039;-89
2021/10/16 05:01:54;;;;;;;0.10;0.10;;;;;;;;;;5098402;27;20114;-90
2021/10/16 05:04:20;;;;;;;0.10;0.10;;;;;;;;;;5098584;27;20035;-90
2021/10/16 05:06:46;;;;;;;0.10;0.10;;;;;;;;;;5115218;27;20039;-90
2021/10/16 05:09:12;;;;;;;0.10;0.10;;;;;;;;;;5115181;27;20482;-90
2021/10/16 05:11:38;;;;;;;0.10;0.10;;;;;;;;;;5131856;27;20466;-89
2021/10/16 05:14:04;;;;;;;0.10;0.10;;;;;;;;;;5115131;27;20027;-89
2021/10/16 05:16:30;;;;;;;0.10;0.10;;;;;;;;;;5114740;27;20035;-90
2021/10/16 05:18:56;;;;;;;0.10;0.10;;;;;;;;;;5097097;27;20084;-89
2021/10/16 05:21:22;;;;;;;0.10;0.10;;;;;;;;;;5131882;27;20483;-89
2021/10/16 05:23:48;;;;;;;0.10;0.10;;;;;;;;;;5132180;27;20038;-89
2021/10/16 05:26:14;;;;;;;0.10;0.10;;;;;;;;;;5097874;28;20042;-90
2021/10/16 05:28:40;;;;;;;0.10;0.10;;;;;;;;;;5097912;28;20366;-89
2021/10/16 05:31:06;;;;;;;0.10;0.10;;;;;;;;;;5114872;28;20074;-90
2021/10/16 05:33:32;;;;;;;0.10;0.10;;;;;;;;;;5115226;28;20039;-90
2021/10/16 05:35:58;;;;;;;0.10;0.10;;;;;;;;;;5132003;28;20050;-90
2021/10/16 05:38:25;;;;;;;0.10;0.10;;;;;;;;;;5115200;28;20050;-90
2021/10/16 05:40:51;;;;;;;0.10;0.10;;;;;;;;;;5098117;28;20050;-90
2021/10/16 05:43:17;;;;;;;0.10;0.10;;;;;;;;;;5098125;28;20042;-90
2021/10/16 05:45:43;;;;;;;0.22;0.22;;;;;;;;;;5132200;27;20041;-90
2021/10/16 05:48:09;;;;;;;0.10;0.10;;;;;;;;;;5097975;28;20461;-92
2021/10/16 05:50:39;;;;;;;0.10;0.10;;;;;;;;;;5099812;28;20095;-94
2021/10/16 05:53:05;;;;;;;0.10;0.10;;;;;;;;;;5115035;28;20126;-91
2021/10/16 05:55:31;;;;;;;0.10;0.10;;;;;;;;;;5114895;27;20077;-90
2021/10/16 05:57:57;;;;;;;0.10;0.10;;;;;;;;;;5098223;27;20055;-91
2021/10/16 06:00:23;;;;;;;0.10;0.10;;;;;;;;;;5115169;28;20086;-91
2021/10/16 06:02:49;;;;;;;0.10;0.10;;;;;;;;;;5098069;28;20087;-91
2021/10/16 06:05:15;;;;;;;0.10;0.10;;;;;;;;;;5132202;28;20244;-90
2021/10/16 06:07:41;;;;;;;0.10;0.10;;;;;;;;;;5115055;28;20423;-90
2021/10/16 06:10:07;;;;;;;0.10;0.10;;;;;;;;;;5097712;28;20091;-90
2021/10/16 06:12:33;;;;;;;0.10;0.10;;;;;;;;;;5131899;28;20046;-91
2021/10/16 06:14:59;;;;;;;0.10;0.10;;;;;;;;;;5114626;28;20043;-91
2021/10/16 06:17:25;;;;;;;0.10;0.10;;;;;;;;;;5098192;28;20147;-89
2021/10/16 06:19:52;;;;;;;0.10;0.10;;;;;;;;;;5114723;28;20050;-92
2021/10/16 06:22:18;;;;;;;0.10;0.10;;;;;;;;;;5098698;28;20035;-93
2021/10/16 06:24:44;;;;;;;0.10;0.10;;;;;;;;;;5114742;27;20035;-90
2021/10/16 06:27:10;;;;;;;0.10;0.10;;;;;;;;;;5114922;28;20100;-89
2021/10/16 06:29:36;;;;;;;0.10;0.10;;;;;;;;;;5115174;27;20117;-88
2021/10/16 06:32:02;;;;;;;0.10;0.10;;;;;;;;;;5118419;27;20042;-91
2021/10/16 06:34:27;;;;;;;0.10;0.10;;;;;;;;;;5101269;27;20088;-90
2021/10/16 06:36:54;;;;;;;0.10;0.10;;;;;;;;;;5117863;27;20379;-89
2021/10/16 06:39:20;;;;;;;0.10;0.10;;;;;;;;;;5117909;27;20063;-90
2021/10/16 06:41:45;;;;;;;0.10;0.10;;;;;;;;;;5134639;27;20039;-89
2021/10/16 06:44:11;;;;;;;0.10;0.10;;;;;;;;;;5117657;27;20569;-88
2021/10/16 06:46:37;;;;;;;0.10;0.10;;;;;;;;;;5118090;27;20458;-92
2021/10/16 06:49:03;;;;;;;0.10;0.10;;;;;;;;;;5118116;27;20402;-90
2021/10/16 06:51:29;;;;;;;0.10;0.10;;;;;;;;;;5134743;27;20039;-90
2021/10/16 06:53:55;;;;;;;0.10;0.10;;;;;;;;;;5101201;27;20046;-90
2021/10/16 06:56:21;;;;;;;0.10;0.10;;;;;;;;;;5117569;27;20074;-88
2021/10/16 06:58:48;;;;;;;0.10;0.10;;;;;;;;;;5117390;27;20073;-89
2021/10/16 07:01:14;;;;;;;0.10;0.10;;;;;;;;;;5100441;27;20219;-88
2021/10/16 07:03:40;;;;;;;0.10;0.10;;;;;;;;;;5100552;27;20138;-92
2021/10/16 07:06:06;;;;;;;0.10;0.10;;;;;;;;;;5100455;27;20066;-89
2021/10/16 07:08:32;;;;;;;0.10;0.10;;;;;;;;;;5100369;27;20031;-91
2021/10/16 07:10:58;;;;;;;0.10;0.10;;;;;;;;;;5117233;27;20039;-89
2021/10/16 07:13:24;;;;;;;0.10;0.10;;;;;;;;;;5117343;27;20039;-91
2021/10/16 07:15:50;;;;;;;0.10;0.10;;;;;;;;;;5101192;27;20367;-93
2021/10/16 07:18:16;;;;;;;0.10;0.10;;;;;;;;;;5118353;27;20064;-92
2021/10/16 07:20:42;;;;;;;0.10;0.10;;;;;;;;;;5101300;27;20424;-92
2021/10/16 07:23:08;;;;;;;0.10;0.10;;;;;;;;;;5101850;27;20131;-94
2021/10/16 07:25:34;;;;;;;0.10;0.10;;;;;;;;;;5108215;27;20424;-92
2021/10/16 07:28:00;;;;;;;0.10;0.10;;;;;;;;;;5101560;27;20050;-92
2021/10/16 07:30:26;;;;;;;0.10;0.10;;;;;;;;;;5101768;27;20416;-94
2021/10/16 07:32:52;;;;;;;0.10;0.10;;;;;;;;;;5105150;27;20065;-93
2021/10/16 07:35:18;;;;;;;0.10;0.10;;;;;;;;;;5101041;27;20046;-93
2021/10/16 07:37:44;;;;;;;0.10;0.10;;;;;;;;;;5100881;27;20039;-95
2021/10/16 07:40:11;;;;;;;0.10;0.10;;;;;;;;;;5117899;27;20043;-96
2021/10/16 07:42:37;;;;;;;0.10;0.10;;;;;;;;;;5100161;27;20041;-95
2021/10/16 07:45:03;;;;;;;0.10;0.10;;;;;;;;;;5117790;27;20088;-94
2021/10/16 07:47:29;;;;;;;0.10;0.10;;;;;;;;;;5118266;27;20035;-92
2021/10/16 07:49:55;;;;;;;0.10;0.10;;;;;;;;;;5117699;27;20107;-94
2021/10/16 07:52:21;;;;;;;0.10;0.10;;;;;;;;;;5100565;27;20058;-94
2021/10/16 07:54:48;;;;;;;0.10;0.10;;;;;;;;;;5116538;27;20051;-92
2021/10/16 07:57:14;;;;;;;0.10;0.10;;;;;;;;;;5117391;27;20160;-93
2021/10/16 07:59:41;;;;;;;0.10;0.10;;;;;;;;;;5100176;27;20399;-94
2021/10/16 08:02:07;;;;;;;0.10;0.10;;;;;;;;;;5100066;27;20053;-90
2021/10/16 08:04:33;;;;;;;0.10;0.10;;;;;;;;;;5118494;27;20467;-92
2021/10/16 08:06:59;;;;;;;0.10;0.10;;;;;;;;;;5117063;27;20035;-93
2021/10/16 08:09:25;;;;;;;0.10;0.10;;;;;;;;;;5100077;27;20503;-93
2021/10/16 08:11:51;;;;;;;0.10;0.10;;;;;;;;;;5116880;27;20039;-96
2021/10/16 08:14:19;;;;;;;0.10;0.10;;;;;;;;;;5104040;27;20077;-93
2021/10/16 08:16:48;;;;;;;0.10;0.10;;;;;;;;;;5110920;27;20043;-95
2021/10/16 08:19:17;;;;;;;0.10;0.10;;;;;;;;;;5131696;27;20069;-91
2021/10/16 08:24:21;;;;;;;0.10;0.10;;;;;;;;;;5195263;22;19976;-92
2021/10/16 08:26:49;;;;;;;0.10;0.10;;;;;;;;;;5053240;28;20110;-90
2021/10/16 08:29:15;;;;;;;0.10;0.10;;;;;;;;;;5023302;28;20033;-94
2021/10/16 08:31:41;;;;;;;0.10;0.10;;;;;;;;;;5040346;28;20499;-94
2021/10/16 08:34:07;;;;;;;0.10;0.10;;;;;;;;;;5025821;28;20044;-95
2021/10/16 08:36:33;;;;;;;0.10;0.10;;;;;;;;;;5023109;28;20047;-94
2021/10/16 08:38:59;;;;;;;0.10;0.10;;;;;;;;;;5040058;28;20083;-93
2021/10/16 08:41:25;;;;;;;0.10;0.10;;;;;;;;;;5022986;28;20075;-93
2021/10/16 08:43:51;;;;;;;0.10;0.10;;;;;;;;;;5038951;28;20602;-92
2021/10/16 08:46:17;;;;;;;0.10;0.10;;;;;;;;;;5038550;28;20037;-92
2021/10/16 08:48:45;;;;;;;0.10;0.10;;;;;;;;;;5056096;28;20056;-93
2021/10/16 08:51:11;;;;;;;0.10;0.10;;;;;;;;;;5040562;28;20036;-94
2021/10/16 08:53:38;;;;;;;0.10;0.10;;;;;;;;;;5021775;28;20060;-92
2021/10/16 08:56:10;;;;;;;0.10;0.10;;;;;;;;;;5024956;28;20142;-95
2021/10/16 08:58:37;;;;;;;0.10;0.10;;;;;;;;;;5031270;28;20100;-92
2021/10/16 09:01:03;;;;;;;0.10;0.10;;;;;;;;;;5025912;28;20040;-93
2021/10/16 09:03:40;;;;;;;0.10;0.10;;;;;;;;;;5022349;28;20099;-94
2021/10/16 09:06:10;;;;;;;0.10;0.10;;;;;;;;;;5039394;28;20053;-96
2021/10/16 09:08:39;;;;;;;0.10;0.10;;;;;;;;;;5040375;28;20472;-91
2021/10/16 09:11:13;;;;;;;0.10;0.10;;;;;;;;;;5557485;23;20071;-94
2021/10/16 09:13:43;;;;;;;0.10;0.10;;;;;;;;;;5075155;28;20052;-92
2021/10/16 09:16:38;;;;;;;0.10;0.10;;;;;;;;;;5056839;28;20446;-95
2021/10/16 09:19:13;;;;;;;0.10;0.10;;;;;;;;;;5037841;28;20059;-95
2021/10/16 09:21:43;;;;;;;0.10;0.10;;;;;;;;;;5058692;28;20048;-95
2021/10/16 09:24:09;;;;;;;0.10;0.10;;;;;;;;;;5023880;28;20379;-92
2021/10/16 09:26:35;;;;;;;0.10;0.10;;;;;;;;;;5038680;28;20051;-93
2021/10/16 09:29:02;;;;;;;0.10;0.10;;;;;;;;;;5038768;28;20490;-93
2021/10/16 09:31:31;;;;;;;0.10;0.10;;;;;;;;;;5038510;28;20063;-94
2021/10/16 09:33:57;;;;;;;0.10;0.10;;;;;;;;;;5038557;28;20084;-93
2021/10/16 09:36:24;;;;;;;0.10;0.10;;;;;;;;;;5021920;28;20037;-93
2021/10/16 09:38:50;;;;;;;0.10;0.10;;;;;;;;;;5037821;28;20098;-93
2021/10/16 09:41:32;;;;;;;0.10;0.10;;;;;;;;;;5039451;28;20044;-95
2021/10/16 09:43:58;;;;;;;0.10;0.10;;;;;;;;;;5022131;28;20127;-91
2021/10/16 09:46:24;;;;;;;0.05;0.05;;;;;;;;;;5057902;28;20079;-95
2021/10/16 09:48:50;;;;;;;0.10;0.10;;;;;;;;;;5028585;28;20048;-95
2021/10/16 09:51:17;;;;;;;0.10;0.10;;;;;;;;;;5023393;28;20037;-94
2021/10/16 09:53:46;;;;;;;0.10;0.10;;;;;;;;;;5021098;28;20048;-93
2021/10/16 09:56:12;;;;;;;0.10;0.10;;;;;;;;;;5019994;28;20052;-94
2021/10/16 09:58:39;;;;;;;0.10;0.10;;;;;;;;;;5006216;28;20080;-95
2021/10/16 10:01:05;;;;;;;0.10;0.10;;;;;;;;;;5020364;28;20059;-96
2021/10/16 10:03:34;;;;;;;0.10;0.10;;;;;;;;;;5020378;28;20119;-96
2021/10/16 10:06:02;;;;;;;0.10;0.10;;;;;;;;;;5009614;28;20041;-96
2021/10/16 10:08:31;;;;;;;0.10;0.10;;;;;;;;;;5025655;28;20044;-94
2021/10/16 10:10:57;;;;;;;0.10;0.10;;;;;;;;;;5008684;28;20064;-93
2021/10/16 10:13:26;;;;;;;0.10;0.10;;;;;;;;;;5029432;28;20036;-92
2021/10/16 10:15:52;;;;;;;0.10;0.10;;;;;;;;;;5029992;28;20033;-90
2021/10/16 10:21:03;;;;;;;0.10;0.10;;;;;;;;;;5046579;28;20041;-90
2021/10/16 10:23:29;;;;;;;0.10;0.10;;;;;;;;;;5045950;28;20063;-91
2021/10/16 10:26:13;;;;;;;0.10;0.10;;;;;;;;;;5027095;28;20052;-92
2021/10/16 10:28:52;;;;;;;0.10;0.10;;;;;;;;;;5648152;22;20270;-96
2021/10/16 10:31:37;;;;;;;0.10;0.10;;;;;;;;;;5072082;28;20040;-96
2021/10/16 10:34:03;;;;;;;0.10;0.10;;;;;;;;;;5065452;28;20039;-91
2021/10/16 10:36:31;;;;;;;0.10;0.10;;;;;;;;;;5051244;28;20040;-95
2021/10/16 10:38:58;;;;;;;0.10;0.10;;;;;;;;;;5092064;28;20094;-95
2021/10/16 10:41:24;;;;;;;0.10;0.10;;;;;;;;;;5075410;28;20040;-93
2021/10/16 10:43:55;;;;;;;0.10;0.10;;;;;;;;;;5076746;28;20044;-94
2021/10/16 10:46:25;;;;;;;0.10;0.10;;;;;;;;;;5075709;28;20036;-96
2021/10/16 10:48:51;;;;;;;0.10;0.10;;;;;;;;;;5065005;28;20039;-95
2021/10/16 10:51:35;;;;;;;0.10;0.10;;;;;;;;;;5063466;28;20042;-92
2021/10/16 10:54:17;;;;;;;0.10;0.10;;;;;;;;;;5062373;28;20063;-93
2021/10/16 10:56:46;;;;;;;0.10;0.10;;;;;;;;;;5045171;28;20040;-96
2021/10/16 10:59:16;;;;;;;0.10;0.10;;;;;;;;;;5046436;28;20047;-91
2021/10/16 11:02:03;;;;;;;0.10;0.10;;;;;;;;;;5066602;28;20107;-96
2021/10/16 11:04:34;;;;;;;0.10;0.10;;;;;;;;;;5080557;28;20170;-96
2021/10/16 11:07:02;;;;;;;0.10;0.10;;;;;;;;;;5064717;28;20048;-95
2021/10/16 11:09:28;;;;;;;0.10;0.10;;;;;;;;;;5064277;28;20127;-94
2021/10/16 11:11:54;;;;;;;0.10;0.10;;;;;;;;;;5047934;28;20043;-96
2021/10/16 11:14:20;;;;;;;0.10;0.10;;;;;;;;;;5063170;28;20040;-95
2021/10/16 11:16:56;;;;;;;0.10;0.10;;;;;;;;;;5063917;28;20119;-95
2021/10/16 11:19:22;;;;;;;0.10;0.10;;;;;;;;;;5063564;28;20086;-95
2021/10/16 11:22:26;;;;;;;0.10;0.10;;;;;;;;;;5048921;28;20040;-96
2021/10/16 11:25:01;;;;;;;0.10;0.10;;;;;;;;;;5066228;28;20068;-96
2021/10/16 11:27:28;;;;;;;0.10;0.10;;;;;;;;;;5064929;28;20043;-96
2021/10/16 11:29:54;;;;;;;0.10;0.10;;;;;;;;;;5048458;28;20131;-95
2021/10/16 11:32:21;;;;;;;0.10;0.10;;;;;;;;;;5040964;28;20079;-90
2021/10/16 11:35:02;;;;;;;0.10;0.10;;;;;;;;;;5039729;28;20049;-94
2021/10/16 11:37:37;;;;;;;0.10;0.10;;;;;;;;;;5028809;28;20055;-95
2021/10/16 11:40:06;;;;;;;0.10;0.10;;;;;;;;;;5058308;28;20037;-96
2021/10/16 11:42:33;;;;;;;0.10;0.10;;;;;;;;;;5041563;28;20404;-94
2021/10/16 11:44:59;;;;;;;0.10;0.10;;;;;;;;;;5025373;28;20033;-94
2021/10/16 11:47:25;;;;;;;0.10;0.10;;;;;;;;;;5041436;28;20042;-96
2021/10/16 11:49:51;;;;;;;0.10;0.10;;;;;;;;;;5042691;28;20140;-95
2021/10/16 11:52:24;;;;;;;0.10;0.10;;;;;;;;;;5027701;28;20153;-94
2021/10/16 11:54:50;;;;;;;0.10;0.10;;;;;;;;;;5029199;28;20040;-95
2021/10/16 11:57:25;;;;;;;0.10;0.10;;;;;;;;;;5026903;28;20098;-96
2021/10/16 11:59:54;;;;;;;0.25;0.20;;;;;;;;;;5041171;28;20036;-95
2021/10/16 12:02:36;;;;;;;0.10;0.10;;;;;;;;;;5025933;28;20037;-96
2021/10/16 12:05:21;;;;;;;0.10;0.10;;;;;;;;;;5043357;28;20076;-93
2021/10/16 12:07:47;;;;;;;0.10;0.10;;;;;;;;;;5042372;28;20042;-95
2021/10/16 12:10:27;;;;;;;0.10;0.10;;;;;;;;;;5026299;28;20048;-95
2021/10/16 12:13:07;;;;;;;0.10;0.10;;;;;;;;;;5027216;28;20496;-95
2021/10/16 12:15:36;;;;;;;0.10;0.10;;;;;;;;;;5027673;28;20113;-95
2021/10/16 12:18:03;;;;;;;0.10;0.10;;;;;;;;;;5026376;28;20052;-96
2021/10/16 12:20:29;;;;;;;0.10;0.10;;;;;;;;;;5026365;28;20045;-95
2021/10/16 12:22:58;;;;;;;0.10;0.10;;;;;;;;;;5028961;28;20052;-94
2021/10/16 12:25:25;;;;;;;0.10;0.10;;;;;;;;;;5061936;28;20047;-95
2021/10/16 12:28:03;;;;;;;0.10;0.10;;;;;;;;;;5028725;28;20097;-96
2021/10/16 12:30:29;;;;;;;0.10;0.10;;;;;;;;;;5063362;28;20466;-94
2021/10/16 12:33:10;;;;;;;0.10;0.10;;;;;;;;;;5063071;28;20079;-95
2021/10/16 12:35:37;;;;;;;0.10;0.10;;;;;;;;;;5064119;28;20109;-96
2021/10/16 12:38:09;;;;;;;0.10;0.10;;;;;;;;;;5047864;28;20260;-96
2021/10/16 12:40:43;;;;;;;0.10;0.10;;;;;;;;;;5053373;28;20127;-96
2021/10/16 12:43:22;;;;;;;0.17;0.17;;;;;;;;;;5071274;28;20040;-96
2021/10/16 12:45:48;;;;;;;0.10;0.10;;;;;;;;;;5052683;28;20483;-95
2021/10/16 12:48:33;;;;;;;0.10;0.10;;;;;;;;;;5052659;28;20047;-96
2021/10/16 12:51:00;;;;;;;0.10;0.10;;;;;;;;;;5064176;28;20069;-95
2021/10/16 12:53:26;;;;;;;0.10;0.10;;;;;;;;;;5076384;28;20050;-96
2021/10/16 12:55:52;;;;;;;0.10;0.10;;;;;;;;;;5060249;28;20079;-96
2021/10/16 12:58:18;;;;;;;0.10;0.10;;;;;;;;;;5046025;28;20079;-96
2021/10/16 13:00:50;;;;;;;0.10;0.10;;;;;;;;;;5045927;28;20036;-94
2021/10/16 13:03:17;;;;;;;0.10;0.10;;;;;;;;;;5046798;28;20040;-95
2021/10/16 13:05:45;;;;;;;0.10;0.10;;;;;;;;;;5049649;28;20051;-95
2021/10/16 13:08:12;;;;;;;0.10;0.10;;;;;;;;;;5053595;28;20040;-96
2021/10/16 13:10:41;;;;;;;0.10;0.10;;;;;;;;;;5053679;28;20047;-94
2021/10/16 13:13:07;;;;;;;0.10;0.10;;;;;;;;;;5064393;28;20040;-94
2021/10/16 13:15:35;;;;;;;0.10;0.10;;;;;;;;;;5046694;28;20542;-94
2021/10/16 13:18:05;;;;;;;0.10;0.10;;;;;;;;;;5046755;28;20043;-96
2021/10/16 13:20:31;;;;;;;0.10;0.10;;;;;;;;;;5081230;28;20044;-96
2021/10/16 13:22:57;;;;;;;0.10;0.10;;;;;;;;;;5046484;28;20046;-94
2021/10/16 13:25:23;;;;;;;0.10;0.10;;;;;;;;;;5063090;28;20559;-94
2021/10/16 13:27:49;;;;;;;0.10;0.10;;;;;;;;;;5065493;28;20044;-96
2021/10/16 13:30:19;;;;;;;0.10;0.10;;;;;;;;;;5076375;28;20056;-96
2021/10/16 13:32:45;;;;;;;0.10;0.10;;;;;;;;;;5049137;28;20043;-96
2021/10/16 13:35:14;;;;;;;0.10;0.10;;;;;;;;;;5068116;28;20071;-96
2021/10/16 13:37:40;;;;;;;0.10;0.10;;;;;;;;;;5066921;28;20039;-96
2021/10/16 13:40:06;;;;;;;0.10;0.10;;;;;;;;;;5081001;28;20109;-96
2021/10/16 13:42:36;;;;;;;0.10;0.10;;;;;;;;;;5068426;28;20036;-96
2021/10/16 13:45:03;;;;;;;0.10;0.10;;;;;;;;;;5083384;28;20085;-95
2021/10/16 13:47:32;;;;;;;0.10;0.10;;;;;;;;;;5069110;28;20039;-95
2021/10/16 13:49:58;;;;;;;0.10;0.10;;;;;;;;;;5091186;28;20046;-96
2021/10/16 13:52:24;;;;;;;0.10;0.10;;;;;;;;;;5070196;28;20039;-94
2021/10/16 13:54:50;;;;;;;0.10;0.10;;;;;;;;;;5103566;28;20468;-96
2021/10/16 13:57:16;;;;;;;0.10;0.10;;;;;;;;;;5083130;28;20039;-96
2021/10/16 13:59:45;;;;;;;0.10;0.10;;;;;;;;;;5072314;28;20076;-96
2021/10/16 14:02:15;;;;;;;0.10;0.10;;;;;;;;;;5100080;28;20032;-95
2021/10/16 14:04:46;;;;;;;0.10;0.10;;;;;;;;;;5066514;28;20036;-95
2021/10/16 14:07:12;;;;;;;0.10;0.10;;;;;;;;;;5066522;28;20132;-95
2021/10/16 14:09:41;;;;;;;0.10;0.10;;;;;;;;;;5066891;28;20039;-96
2021/10/16 14:12:07;;;;;;;0.17;0.17;;;;;;;;;;5068497;28;20102;-96
2021/10/16 14:14:33;;;;;;;0.10;0.10;;;;;;;;;;5088040;28;20042;-95
2021/10/16 14:16:59;;;;;;;0.10;0.10;;;;;;;;;;5067629;28;20101;-96
2021/10/16 14:19:25;;;;;;;0.10;0.10;;;;;;;;;;5084480;28;20123;-96
2021/10/16 14:21:51;;;;;;;0.10;0.10;;;;;;;;;;5054228;28;20154;-96
2021/10/16 14:24:16;;;;;;;0.10;0.10;;;;;;;;;;5044615;28;20037;-94
2021/10/16 14:26:43;;;;;;;0.10;0.10;;;;;;;;;;5059027;28;20148;-96
2021/10/16 14:29:12;;;;;;;0.10;0.10;;;;;;;;;;5058319;28;20053;-96
2021/10/16 14:31:38;;;;;;;0.10;0.10;;;;;;;;;;5042575;28;20048;-94
2021/10/16 14:34:05;;;;;;;0.10;0.10;;;;;;;;;;5058064;28;20046;-95
2021/10/16 14:36:31;;;;;;;0.10;0.10;;;;;;;;;;5041274;28;20036;-94
2021/10/16 14:38:57;;;;;;;0.10;0.10;;;;;;;;;;5041590;28;20052;-94
2021/10/16 14:41:23;;;;;;;0.10;0.10;;;;;;;;;;5041319;28;20561;-95
2021/10/16 14:43:49;;;;;;;0.10;0.10;;;;;;;;;;5040821;28;20067;-94
2021/10/16 14:46:15;;;;;;;0.10;0.10;;;;;;;;;;5057948;28;20036;-93
2021/10/16 14:48:42;;;;;;;0.10;0.10;;;;;;;;;;5057993;28;20043;-96
2021/10/16 14:51:08;;;;;;;0.10;0.10;;;;;;;;;;5041208;28;20047;-96